sensor_id;sensor_type;location;lat;lon;timestamp;P1;durP1;ratioP1;P2;durP2;ratioP2
78312;SDS011;67568;47.438;21.408;2023-04-06T00:00:50;8.30;;;3.60;;
78312;SDS011;67568;47.438;21.408;2023-04-06T00:03:17;9.87;;;4.00;;
78312;SDS011;67568;47.438;21.408;2023-04-06T00:05:47;8.27;;;3.45;;
78312;SDS011;67568;47.438;21.408;2023-04-06T00:08:20;8.07;;;4.00;;
78312;SDS011;67568;47.438;21.408;2023-04-06T00:10:47;8.40;;;3.42;;
78312;SDS011;67568;47.438;21.408;2023-04-06T00:13:13;10.27;;;3.60;;
78312;SDS011;67568;47.438;21.408;2023-04-06T00:15:40;9.43;;;3.37;;
78312;SDS011;67568;47.438;21.408;2023-04-06T00:18:06;12.38;;;3.97;;
78312;SDS011;67568;47.438;21.408;2023-04-06T00:20:33;9.82;;;4.30;;
78312;SDS011;67568;47.438;21.408;2023-04-06T00:23:00;10.25;;;3.95;;
78312;SDS011;67568;47.438;21.408;2023-04-06T00:25:26;10.95;;;4.18;;
78312;SDS011;67568;47.438;21.408;2023-04-06T00:27:53;9.47;;;3.50;;
78312;SDS011;67568;47.438;21.408;2023-04-06T00:30:20;9.95;;;3.90;;
78312;SDS011;67568;47.438;21.408;2023-04-06T00:32:46;9.73;;;4.22;;
78312;SDS011;67568;47.438;21.408;2023-04-06T00:35:13;10.73;;;3.95;;
78312;SDS011;67568;47.438;21.408;2023-04-06T00:37:40;8.63;;;3.70;;
78312;SDS011;67568;47.438;21.408;2023-04-06T00:40:07;11.60;;;3.70;;
78312;SDS011;67568;47.438;21.408;2023-04-06T00:42:34;9.77;;;3.60;;
78312;SDS011;67568;47.438;21.408;2023-04-06T00:45:02;10.93;;;4.32;;
78312;SDS011;67568;47.438;21.408;2023-04-06T00:47:29;8.85;;;3.95;;
78312;SDS011;67568;47.438;21.408;2023-04-06T00:49:56;8.30;;;3.58;;
78312;SDS011;67568;47.438;21.408;2023-04-06T00:52:22;9.40;;;3.77;;
78312;SDS011;67568;47.438;21.408;2023-04-06T00:54:49;9.07;;;3.70;;
78312;SDS011;67568;47.438;21.408;2023-04-06T00:57:17;9.15;;;3.97;;
78312;SDS011;67568;47.438;21.408;2023-04-06T00:59:44;8.35;;;3.75;;
78312;SDS011;67568;47.438;21.408;2023-04-06T01:02:11;9.38;;;3.97;;
78312;SDS011;67568;47.438;21.408;2023-04-06T01:04:38;8.83;;;4.53;;
78312;SDS011;67568;47.438;21.408;2023-04-06T01:07:05;8.82;;;3.58;;
78312;SDS011;67568;47.438;21.408;2023-04-06T01:09:32;9.75;;;4.47;;
78312;SDS011;67568;47.438;21.408;2023-04-06T01:12:01;10.13;;;4.30;;
78312;SDS011;67568;47.438;21.408;2023-04-06T01:14:27;9.68;;;3.97;;
78312;SDS011;67568;47.438;21.408;2023-04-06T01:16:58;10.23;;;3.50;;
78312;SDS011;67568;47.438;21.408;2023-04-06T01:19:26;9.27;;;3.80;;
78312;SDS011;67568;47.438;21.408;2023-04-06T01:21:55;10.88;;;3.88;;
78312;SDS011;67568;47.438;21.408;2023-04-06T01:24:22;11.07;;;4.15;;
78312;SDS011;67568;47.438;21.408;2023-04-06T01:26:49;7.93;;;3.63;;
78312;SDS011;67568;47.438;21.408;2023-04-06T01:29:16;9.33;;;3.80;;
78312;SDS011;67568;47.438;21.408;2023-04-06T01:31:42;8.13;;;3.55;;
78312;SDS011;67568;47.438;21.408;2023-04-06T01:34:09;9.18;;;3.40;;
78312;SDS011;67568;47.438;21.408;2023-04-06T01:36:36;9.80;;;4.05;;
78312;SDS011;67568;47.438;21.408;2023-04-06T01:39:02;10.43;;;4.78;;
78312;SDS011;67568;47.438;21.408;2023-04-06T01:41:32;9.60;;;4.00;;
78312;SDS011;67568;47.438;21.408;2023-04-06T01:43:59;8.48;;;3.70;;
78312;SDS011;67568;47.438;21.408;2023-04-06T01:46:26;10.10;;;4.30;;
78312;SDS011;67568;47.438;21.408;2023-04-06T01:48:53;8.43;;;4.05;;
78312;SDS011;67568;47.438;21.408;2023-04-06T01:51:22;10.07;;;3.85;;
78312;SDS011;67568;47.438;21.408;2023-04-06T01:53:49;11.20;;;4.03;;
78312;SDS011;67568;47.438;21.408;2023-04-06T01:56:16;11.00;;;5.13;;
78312;SDS011;67568;47.438;21.408;2023-04-06T01:58:43;9.40;;;3.67;;
78312;SDS011;67568;47.438;21.408;2023-04-06T02:01:09;8.70;;;4.25;;
78312;SDS011;67568;47.438;21.408;2023-04-06T02:03:36;8.75;;;4.43;;
78312;SDS011;67568;47.438;21.408;2023-04-06T02:06:03;9.57;;;4.23;;
78312;SDS011;67568;47.438;21.408;2023-04-06T02:08:30;11.45;;;4.82;;
78312;SDS011;67568;47.438;21.408;2023-04-06T02:10:56;9.68;;;4.40;;
78312;SDS011;67568;47.438;21.408;2023-04-06T02:13:23;11.90;;;4.85;;
78312;SDS011;67568;47.438;21.408;2023-04-06T02:15:50;9.88;;;5.03;;
78312;SDS011;67568;47.438;21.408;2023-04-06T02:18:19;12.53;;;4.50;;
78312;SDS011;67568;47.438;21.408;2023-04-06T02:20:46;13.32;;;5.50;;
78312;SDS011;67568;47.438;21.408;2023-04-06T02:23:13;12.90;;;5.90;;
78312;SDS011;67568;47.438;21.408;2023-04-06T02:25:39;11.90;;;4.95;;
78312;SDS011;67568;47.438;21.408;2023-04-06T02:28:06;10.93;;;5.10;;
78312;SDS011;67568;47.438;21.408;2023-04-06T02:30:36;11.30;;;5.50;;
78312;SDS011;67568;47.438;21.408;2023-04-06T02:33:03;12.13;;;5.60;;
78312;SDS011;67568;47.438;21.408;2023-04-06T02:35:30;11.80;;;5.93;;
78312;SDS011;67568;47.438;21.408;2023-04-06T02:37:57;12.18;;;5.35;;
78312;SDS011;67568;47.438;21.408;2023-04-06T02:40:24;11.73;;;5.15;;
78312;SDS011;67568;47.438;21.408;2023-04-06T02:42:51;10.77;;;5.00;;
78312;SDS011;67568;47.438;21.408;2023-04-06T02:45:17;11.05;;;4.50;;
78312;SDS011;67568;47.438;21.408;2023-04-06T02:47:44;14.23;;;5.80;;
78312;SDS011;67568;47.438;21.408;2023-04-06T02:50:11;12.38;;;5.03;;
78312;SDS011;67568;47.438;21.408;2023-04-06T02:52:37;12.30;;;4.75;;
78312;SDS011;67568;47.438;21.408;2023-04-06T02:55:04;11.63;;;4.90;;
78312;SDS011;67568;47.438;21.408;2023-04-06T02:57:32;9.90;;;5.05;;
78312;SDS011;67568;47.438;21.408;2023-04-06T03:00:01;11.43;;;4.20;;
78312;SDS011;67568;47.438;21.408;2023-04-06T03:02:28;11.13;;;5.07;;
78312;SDS011;67568;47.438;21.408;2023-04-06T03:04:55;11.60;;;4.80;;
78312;SDS011;67568;47.438;21.408;2023-04-06T03:07:21;16.53;;;5.10;;
78312;SDS011;67568;47.438;21.408;2023-04-06T03:09:48;8.48;;;4.28;;
78312;SDS011;67568;47.438;21.408;2023-04-06T03:12:15;9.35;;;3.92;;
78312;SDS011;67568;47.438;21.408;2023-04-06T03:14:41;9.02;;;3.97;;
78312;SDS011;67568;47.438;21.408;2023-04-06T03:17:08;11.60;;;4.25;;
78312;SDS011;67568;47.438;21.408;2023-04-06T03:19:35;11.27;;;4.23;;
78312;SDS011;67568;47.438;21.408;2023-04-06T03:22:01;10.68;;;4.22;;
78312;SDS011;67568;47.438;21.408;2023-04-06T03:24:28;12.40;;;4.93;;
78312;SDS011;67568;47.438;21.408;2023-04-06T03:26:57;10.27;;;4.50;;
78312;SDS011;67568;47.438;21.408;2023-04-06T03:29:27;9.02;;;3.88;;
78312;SDS011;67568;47.438;21.408;2023-04-06T03:31:53;11.67;;;4.67;;
78312;SDS011;67568;47.438;21.408;2023-04-06T03:34:20;12.15;;;4.50;;
78312;SDS011;67568;47.438;21.408;2023-04-06T03:36:48;12.32;;;5.40;;
78312;SDS011;67568;47.438;21.408;2023-04-06T03:39:35;10.80;;;4.65;;
78312;SDS011;67568;47.438;21.408;2023-04-06T03:42:02;11.43;;;4.93;;
78312;SDS011;67568;47.438;21.408;2023-04-06T03:44:28;11.33;;;5.07;;
78312;SDS011;67568;47.438;21.408;2023-04-06T03:46:55;10.95;;;4.72;;
78312;SDS011;67568;47.438;21.408;2023-04-06T03:49:22;10.23;;;4.47;;
78312;SDS011;67568;47.438;21.408;2023-04-06T03:51:48;10.77;;;4.68;;
78312;SDS011;67568;47.438;21.408;2023-04-06T03:54:15;11.73;;;4.70;;
78312;SDS011;67568;47.438;21.408;2023-04-06T03:56:42;10.20;;;4.60;;
78312;SDS011;67568;47.438;21.408;2023-04-06T03:59:08;10.25;;;4.30;;
78312;SDS011;67568;47.438;21.408;2023-04-06T04:01:35;9.10;;;4.30;;
78312;SDS011;67568;47.438;21.408;2023-04-06T04:04:02;11.52;;;4.70;;
78312;SDS011;67568;47.438;21.408;2023-04-06T04:06:29;11.18;;;5.40;;
78312;SDS011;67568;47.438;21.408;2023-04-06T04:08:55;11.30;;;4.40;;
78312;SDS011;67568;47.438;21.408;2023-04-06T04:11:22;10.68;;;4.72;;
78312;SDS011;67568;47.438;21.408;2023-04-06T04:13:49;12.43;;;4.65;;
78312;SDS011;67568;47.438;21.408;2023-04-06T04:16:15;8.80;;;4.30;;
78312;SDS011;67568;47.438;21.408;2023-04-06T04:18:42;10.00;;;4.70;;
78312;SDS011;67568;47.438;21.408;2023-04-06T04:21:09;10.93;;;4.33;;
78312;SDS011;67568;47.438;21.408;2023-04-06T04:23:35;11.27;;;5.07;;
78312;SDS011;67568;47.438;21.408;2023-04-06T04:26:02;12.35;;;4.78;;
78312;SDS011;67568;47.438;21.408;2023-04-06T04:28:29;11.43;;;4.68;;
78312;SDS011;67568;47.438;21.408;2023-04-06T04:30:56;10.35;;;4.75;;
78312;SDS011;67568;47.438;21.408;2023-04-06T04:33:22;10.07;;;4.70;;
78312;SDS011;67568;47.438;21.408;2023-04-06T04:35:49;12.10;;;4.55;;
78312;SDS011;67568;47.438;21.408;2023-04-06T04:38:16;9.48;;;4.20;;
78312;SDS011;67568;47.438;21.408;2023-04-06T04:40:43;9.88;;;4.40;;
78312;SDS011;67568;47.438;21.408;2023-04-06T04:43:09;11.63;;;4.63;;
78312;SDS011;67568;47.438;21.408;2023-04-06T04:45:36;11.20;;;4.57;;
78312;SDS011;67568;47.438;21.408;2023-04-06T04:48:03;12.07;;;4.63;;
78312;SDS011;67568;47.438;21.408;2023-04-06T04:50:29;10.05;;;4.50;;
78312;SDS011;67568;47.438;21.408;2023-04-06T04:52:56;9.48;;;4.22;;
78312;SDS011;67568;47.438;21.408;2023-04-06T04:55:23;11.52;;;4.32;;
78312;SDS011;67568;47.438;21.408;2023-04-06T04:57:49;12.07;;;4.30;;
78312;SDS011;67568;47.438;21.408;2023-04-06T05:00:16;10.30;;;4.30;;
78312;SDS011;67568;47.438;21.408;2023-04-06T05:02:43;9.65;;;4.25;;
78312;SDS011;67568;47.438;21.408;2023-04-06T05:05:10;8.00;;;3.78;;
78312;SDS011;67568;47.438;21.408;2023-04-06T05:07:36;9.63;;;4.15;;
78312;SDS011;67568;47.438;21.408;2023-04-06T05:10:03;10.73;;;4.20;;
78312;SDS011;67568;47.438;21.408;2023-04-06T05:12:30;10.10;;;3.83;;
78312;SDS011;67568;47.438;21.408;2023-04-06T05:14:56;9.65;;;4.18;;
78312;SDS011;67568;47.438;21.408;2023-04-06T05:17:23;10.32;;;4.43;;
78312;SDS011;67568;47.438;21.408;2023-04-06T05:19:50;11.68;;;4.43;;
78312;SDS011;67568;47.438;21.408;2023-04-06T05:22:16;8.63;;;3.80;;
78312;SDS011;67568;47.438;21.408;2023-04-06T05:24:43;11.05;;;4.40;;
78312;SDS011;67568;47.438;21.408;2023-04-06T05:27:10;11.15;;;4.80;;
78312;SDS011;67568;47.438;21.408;2023-04-06T05:29:37;10.00;;;4.22;;
78312;SDS011;67568;47.438;21.408;2023-04-06T05:32:03;11.25;;;4.13;;
78312;SDS011;67568;47.438;21.408;2023-04-06T05:34:30;8.87;;;3.80;;
78312;SDS011;67568;47.438;21.408;2023-04-06T05:36:57;13.18;;;4.20;;
78312;SDS011;67568;47.438;21.408;2023-04-06T05:39:24;10.75;;;4.22;;
78312;SDS011;67568;47.438;21.408;2023-04-06T05:41:50;11.65;;;4.57;;
78312;SDS011;67568;47.438;21.408;2023-04-06T05:44:17;12.25;;;4.57;;
78312;SDS011;67568;47.438;21.408;2023-04-06T05:46:43;10.37;;;3.80;;
78312;SDS011;67568;47.438;21.408;2023-04-06T05:49:10;10.02;;;4.20;;
78312;SDS011;67568;47.438;21.408;2023-04-06T05:51:37;10.52;;;5.18;;
78312;SDS011;67568;47.438;21.408;2023-04-06T05:54:04;9.40;;;4.22;;
78312;SDS011;67568;47.438;21.408;2023-04-06T05:56:30;11.65;;;4.38;;
78312;SDS011;67568;47.438;21.408;2023-04-06T05:58:58;10.37;;;3.90;;
78312;SDS011;67568;47.438;21.408;2023-04-06T06:01:25;9.80;;;3.90;;
78312;SDS011;67568;47.438;21.408;2023-04-06T06:03:51;8.70;;;3.80;;
78312;SDS011;67568;47.438;21.408;2023-04-06T06:06:18;10.13;;;4.13;;
78312;SDS011;67568;47.438;21.408;2023-04-06T06:08:45;12.38;;;4.30;;
78312;SDS011;67568;47.438;21.408;2023-04-06T06:11:11;12.07;;;4.60;;
78312;SDS011;67568;47.438;21.408;2023-04-06T06:13:38;21.67;;;4.90;;
78312;SDS011;67568;47.438;21.408;2023-04-06T06:16:05;18.13;;;4.93;;
78312;SDS011;67568;47.438;21.408;2023-04-06T06:18:31;10.65;;;4.70;;
78312;SDS011;67568;47.438;21.408;2023-04-06T06:20:58;15.45;;;4.55;;
78312;SDS011;67568;47.438;21.408;2023-04-06T06:23:25;13.27;;;4.37;;
78312;SDS011;67568;47.438;21.408;2023-04-06T06:25:51;13.95;;;4.85;;
78312;SDS011;67568;47.438;21.408;2023-04-06T06:28:18;14.07;;;5.18;;
78312;SDS011;67568;47.438;21.408;2023-04-06T06:30:45;10.15;;;4.25;;
78312;SDS011;67568;47.438;21.408;2023-04-06T06:33:12;16.33;;;4.65;;
78312;SDS011;67568;47.438;21.408;2023-04-06T06:35:38;13.83;;;5.07;;
78312;SDS011;67568;47.438;21.408;2023-04-06T06:38:05;12.68;;;5.10;;
78312;SDS011;67568;47.438;21.408;2023-04-06T06:40:32;11.15;;;4.95;;
78312;SDS011;67568;47.438;21.408;2023-04-06T06:42:59;12.63;;;5.22;;
78312;SDS011;67568;47.438;21.408;2023-04-06T06:45:26;12.35;;;4.68;;
78312;SDS011;67568;47.438;21.408;2023-04-06T06:47:53;9.57;;;4.33;;
78312;SDS011;67568;47.438;21.408;2023-04-06T06:50:21;10.75;;;4.18;;
78312;SDS011;67568;47.438;21.408;2023-04-06T06:52:47;12.18;;;4.60;;
78312;SDS011;67568;47.438;21.408;2023-04-06T06:55:14;8.63;;;4.32;;
78312;SDS011;67568;47.438;21.408;2023-04-06T06:57:41;11.50;;;4.93;;
78312;SDS011;67568;47.438;21.408;2023-04-06T07:00:08;11.37;;;4.70;;
78312;SDS011;67568;47.438;21.408;2023-04-06T07:02:38;10.35;;;4.55;;
78312;SDS011;67568;47.438;21.408;2023-04-06T07:05:05;10.70;;;4.47;;
78312;SDS011;67568;47.438;21.408;2023-04-06T07:07:52;10.52;;;4.38;;
78312;SDS011;67568;47.438;21.408;2023-04-06T07:10:19;10.57;;;4.45;;
78312;SDS011;67568;47.438;21.408;2023-04-06T07:12:46;11.03;;;4.50;;
78312;SDS011;67568;47.438;21.408;2023-04-06T07:15:13;13.43;;;5.20;;
78312;SDS011;67568;47.438;21.408;2023-04-06T07:17:40;9.82;;;4.97;;
78312;SDS011;67568;47.438;21.408;2023-04-06T07:20:06;9.95;;;4.80;;
78312;SDS011;67568;47.438;21.408;2023-04-06T07:22:34;11.00;;;4.78;;
78312;SDS011;67568;47.438;21.408;2023-04-06T07:25:00;9.40;;;4.00;;
78312;SDS011;67568;47.438;21.408;2023-04-06T07:27:27;11.65;;;4.63;;
78312;SDS011;67568;47.438;21.408;2023-04-06T07:29:53;10.77;;;4.85;;
78312;SDS011;67568;47.438;21.408;2023-04-06T07:32:20;14.05;;;5.90;;
78312;SDS011;67568;47.438;21.408;2023-04-06T07:34:47;10.95;;;5.32;;
78312;SDS011;67568;47.438;21.408;2023-04-06T07:37:13;10.30;;;5.13;;
78312;SDS011;67568;47.438;21.408;2023-04-06T07:39:40;12.68;;;5.53;;
78312;SDS011;67568;47.438;21.408;2023-04-06T07:42:07;10.30;;;5.68;;
78312;SDS011;67568;47.438;21.408;2023-04-06T07:44:33;10.45;;;5.20;;
78312;SDS011;67568;47.438;21.408;2023-04-06T07:47:00;12.57;;;5.05;;
78312;SDS011;67568;47.438;21.408;2023-04-06T07:49:27;10.93;;;5.60;;
78312;SDS011;67568;47.438;21.408;2023-04-06T07:51:53;13.25;;;5.28;;
78312;SDS011;67568;47.438;21.408;2023-04-06T07:54:23;10.00;;;5.00;;
78312;SDS011;67568;47.438;21.408;2023-04-06T07:56:50;12.27;;;5.75;;
78312;SDS011;67568;47.438;21.408;2023-04-06T07:59:16;13.02;;;5.90;;
78312;SDS011;67568;47.438;21.408;2023-04-06T08:01:43;13.13;;;5.67;;
78312;SDS011;67568;47.438;21.408;2023-04-06T08:04:09;13.98;;;6.15;;
78312;SDS011;67568;47.438;21.408;2023-04-06T08:06:37;12.90;;;6.20;;
78312;SDS011;67568;47.438;21.408;2023-04-06T08:09:04;11.30;;;5.75;;
78312;SDS011;67568;47.438;21.408;2023-04-06T08:11:30;11.63;;;6.45;;
78312;SDS011;67568;47.438;21.408;2023-04-06T08:13:57;12.23;;;6.10;;
78312;SDS011;67568;47.438;21.408;2023-04-06T08:16:24;12.68;;;5.85;;
78312;SDS011;67568;47.438;21.408;2023-04-06T08:18:50;12.93;;;5.63;;
78312;SDS011;67568;47.438;21.408;2023-04-06T08:21:17;11.50;;;5.93;;
78312;SDS011;67568;47.438;21.408;2023-04-06T08:23:44;14.77;;;6.45;;
78312;SDS011;67568;47.438;21.408;2023-04-06T08:26:11;16.43;;;6.70;;
78312;SDS011;67568;47.438;21.408;2023-04-06T08:28:37;12.13;;;5.78;;
78312;SDS011;67568;47.438;21.408;2023-04-06T08:31:05;13.05;;;6.90;;
78312;SDS011;67568;47.438;21.408;2023-04-06T08:33:35;11.98;;;6.88;;
78312;SDS011;67568;47.438;21.408;2023-04-06T08:36:11;13.75;;;7.18;;
78312;SDS011;67568;47.438;21.408;2023-04-06T08:38:39;14.27;;;7.17;;
78312;SDS011;67568;47.438;21.408;2023-04-06T08:41:11;14.30;;;7.47;;
78312;SDS011;67568;47.438;21.408;2023-04-06T08:46:15;13.82;;;7.15;;
78312;SDS011;67568;47.438;21.408;2023-04-06T08:48:43;14.65;;;7.45;;
78312;SDS011;67568;47.438;21.408;2023-04-06T08:51:10;14.40;;;7.33;;
78312;SDS011;67568;47.438;21.408;2023-04-06T08:53:37;14.15;;;7.32;;
78312;SDS011;67568;47.438;21.408;2023-04-06T08:56:04;14.15;;;7.35;;
78312;SDS011;67568;47.438;21.408;2023-04-06T08:58:34;16.00;;;7.25;;
78312;SDS011;67568;47.438;21.408;2023-04-06T09:01:06;13.90;;;7.80;;
78312;SDS011;67568;47.438;21.408;2023-04-06T09:03:35;13.50;;;7.10;;
78312;SDS011;67568;47.438;21.408;2023-04-06T09:06:04;13.32;;;7.28;;
78312;SDS011;67568;47.438;21.408;2023-04-06T09:08:32;15.32;;;8.15;;
78312;SDS011;67568;47.438;21.408;2023-04-06T09:11:04;17.65;;;7.85;;
78312;SDS011;67568;47.438;21.408;2023-04-06T09:13:31;15.77;;;7.90;;
78312;SDS011;67568;47.438;21.408;2023-04-06T09:16:10;14.20;;;7.97;;
78312;SDS011;67568;47.438;21.408;2023-04-06T09:18:36;14.48;;;7.72;;
78312;SDS011;67568;47.438;21.408;2023-04-06T09:21:04;13.52;;;7.50;;
78312;SDS011;67568;47.438;21.408;2023-04-06T09:23:32;13.93;;;7.43;;
78312;SDS011;67568;47.438;21.408;2023-04-06T09:26:09;17.67;;;8.52;;
78312;SDS011;67568;47.438;21.408;2023-04-06T09:31:09;14.20;;;8.27;;
78312;SDS011;67568;47.438;21.408;2023-04-06T09:33:37;13.93;;;7.15;;
78312;SDS011;67568;47.438;21.408;2023-04-06T09:36:04;12.75;;;6.78;;
78312;SDS011;67568;47.438;21.408;2023-04-06T09:38:32;15.00;;;7.38;;
78312;SDS011;67568;47.438;21.408;2023-04-06T09:40:59;13.00;;;6.97;;
78312;SDS011;67568;47.438;21.408;2023-04-06T09:43:27;14.07;;;7.70;;
78312;SDS011;67568;47.438;21.408;2023-04-06T09:45:55;13.05;;;7.10;;
78312;SDS011;67568;47.438;21.408;2023-04-06T09:48:23;14.25;;;8.00;;
78312;SDS011;67568;47.438;21.408;2023-04-06T09:50:55;16.75;;;8.15;;
78312;SDS011;67568;47.438;21.408;2023-04-06T09:53:26;13.53;;;6.97;;
78312;SDS011;67568;47.438;21.408;2023-04-06T09:55:57;18.27;;;8.15;;
78312;SDS011;67568;47.438;21.408;2023-04-06T09:58:28;15.32;;;9.18;;
78312;SDS011;67568;47.438;21.408;2023-04-06T10:01:07;19.65;;;9.32;;
78312;SDS011;67568;47.438;21.408;2023-04-06T10:06:23;15.50;;;8.57;;
78312;SDS011;67568;47.438;21.408;2023-04-06T10:08:54;14.07;;;8.20;;
78312;SDS011;67568;47.438;21.408;2023-04-06T10:11:22;15.57;;;8.48;;
78312;SDS011;67568;47.438;21.408;2023-04-06T10:13:49;14.15;;;7.95;;
78312;SDS011;67568;47.438;21.408;2023-04-06T10:16:16;14.48;;;8.27;;
78312;SDS011;67568;47.438;21.408;2023-04-06T10:18:44;16.00;;;8.87;;
78312;SDS011;67568;47.438;21.408;2023-04-06T10:21:19;16.33;;;8.20;;
78312;SDS011;67568;47.438;21.408;2023-04-06T10:23:53;14.05;;;7.88;;
78312;SDS011;67568;47.438;21.408;2023-04-06T10:26:23;13.60;;;7.03;;
78312;SDS011;67568;47.438;21.408;2023-04-06T10:28:50;14.85;;;7.93;;
78312;SDS011;67568;47.438;21.408;2023-04-06T10:31:24;14.37;;;7.73;;
78312;SDS011;67568;47.438;21.408;2023-04-06T10:33:55;14.68;;;8.02;;
78312;SDS011;67568;47.438;21.408;2023-04-06T10:36:26;12.55;;;7.10;;
78312;SDS011;67568;47.438;21.408;2023-04-06T10:38:58;13.13;;;6.75;;
78312;SDS011;67568;47.438;21.408;2023-04-06T10:41:33;11.75;;;6.47;;
78312;SDS011;67568;47.438;21.408;2023-04-06T10:44:01;11.83;;;7.03;;
78312;SDS011;67568;47.438;21.408;2023-04-06T10:46:29;14.73;;;7.40;;
78312;SDS011;67568;47.438;21.408;2023-04-06T10:48:57;16.67;;;6.82;;
78312;SDS011;67568;47.438;21.408;2023-04-06T10:51:37;12.40;;;6.72;;
78312;SDS011;67568;47.438;21.408;2023-04-06T10:54:05;13.25;;;7.38;;
78312;SDS011;67568;47.438;21.408;2023-04-06T10:56:33;13.23;;;6.57;;
78312;SDS011;67568;47.438;21.408;2023-04-06T10:59:03;12.65;;;6.93;;
78312;SDS011;67568;47.438;21.408;2023-04-06T11:01:29;13.68;;;7.57;;
78312;SDS011;67568;47.438;21.408;2023-04-06T11:03:56;14.02;;;7.65;;
78312;SDS011;67568;47.438;21.408;2023-04-06T11:06:25;12.40;;;6.95;;
78312;SDS011;67568;47.438;21.408;2023-04-06T11:08:53;13.37;;;6.87;;
78312;SDS011;67568;47.438;21.408;2023-04-06T11:11:22;12.13;;;6.60;;
78312;SDS011;67568;47.438;21.408;2023-04-06T11:13:51;13.73;;;6.75;;
78312;SDS011;67568;47.438;21.408;2023-04-06T11:16:22;12.73;;;6.75;;
78312;SDS011;67568;47.438;21.408;2023-04-06T11:19:00;12.82;;;7.00;;
78312;SDS011;67568;47.438;21.408;2023-04-06T11:21:36;13.00;;;6.83;;
78312;SDS011;67568;47.438;21.408;2023-04-06T11:29:11;14.45;;;7.30;;
78312;SDS011;67568;47.438;21.408;2023-04-06T11:31:43;12.00;;;7.32;;
78312;SDS011;67568;47.438;21.408;2023-04-06T11:34:13;13.43;;;7.53;;
78312;SDS011;67568;47.438;21.408;2023-04-06T11:36:44;13.50;;;7.60;;
78312;SDS011;67568;47.438;21.408;2023-04-06T11:39:13;13.48;;;8.02;;
78312;SDS011;67568;47.438;21.408;2023-04-06T11:41:48;14.88;;;7.72;;
78312;SDS011;67568;47.438;21.408;2023-04-06T11:44:15;14.70;;;7.68;;
78312;SDS011;67568;47.438;21.408;2023-04-06T11:46:53;12.37;;;6.93;;
78312;SDS011;67568;47.438;21.408;2023-04-06T11:49:20;15.30;;;7.93;;
78312;SDS011;67568;47.438;21.408;2023-04-06T11:51:46;14.20;;;7.72;;
78312;SDS011;67568;47.438;21.408;2023-04-06T11:54:13;12.52;;;7.32;;
78312;SDS011;67568;47.438;21.408;2023-04-06T11:56:40;16.75;;;9.07;;
78312;SDS011;67568;47.438;21.408;2023-04-06T11:59:06;13.47;;;7.63;;
78312;SDS011;67568;47.438;21.408;2023-04-06T12:01:33;13.57;;;6.68;;
78312;SDS011;67568;47.438;21.408;2023-04-06T12:04:04;15.70;;;8.23;;
78312;SDS011;67568;47.438;21.408;2023-04-06T12:06:31;12.73;;;7.00;;
78312;SDS011;67568;47.438;21.408;2023-04-06T12:08:58;12.32;;;7.15;;
78312;SDS011;67568;47.438;21.408;2023-04-06T12:11:24;13.87;;;7.30;;
78312;SDS011;67568;47.438;21.408;2023-04-06T12:13:51;14.18;;;7.25;;
78312;SDS011;67568;47.438;21.408;2023-04-06T12:16:18;14.43;;;6.75;;
78312;SDS011;67568;47.438;21.408;2023-04-06T12:18:44;14.48;;;7.25;;
78312;SDS011;67568;47.438;21.408;2023-04-06T12:21:11;12.45;;;7.43;;
78312;SDS011;67568;47.438;21.408;2023-04-06T12:23:37;11.50;;;6.50;;
78312;SDS011;67568;47.438;21.408;2023-04-06T12:26:04;12.68;;;7.00;;
78312;SDS011;67568;47.438;21.408;2023-04-06T12:28:38;15.55;;;9.10;;
78312;SDS011;67568;47.438;21.408;2023-04-06T12:31:05;14.65;;;7.53;;
78312;SDS011;67568;47.438;21.408;2023-04-06T12:33:31;13.57;;;7.53;;
78312;SDS011;67568;47.438;21.408;2023-04-06T12:35:58;14.33;;;7.97;;
78312;SDS011;67568;47.438;21.408;2023-04-06T12:38:24;15.68;;;8.13;;
78312;SDS011;67568;47.438;21.408;2023-04-06T12:40:51;16.70;;;10.70;;
78312;SDS011;67568;47.438;21.408;2023-04-06T12:43:18;13.80;;;8.15;;
78312;SDS011;67568;47.438;21.408;2023-04-06T12:45:44;13.32;;;7.50;;
78312;SDS011;67568;47.438;21.408;2023-04-06T12:48:11;13.03;;;7.53;;
78312;SDS011;67568;47.438;21.408;2023-04-06T12:50:38;16.50;;;8.02;;
78312;SDS011;67568;47.438;21.408;2023-04-06T12:53:04;14.27;;;8.02;;
78312;SDS011;67568;47.438;21.408;2023-04-06T12:55:31;13.07;;;7.63;;
78312;SDS011;67568;47.438;21.408;2023-04-06T12:57:58;15.10;;;8.05;;
78312;SDS011;67568;47.438;21.408;2023-04-06T13:00:24;22.30;;;9.13;;
78312;SDS011;67568;47.438;21.408;2023-04-06T13:02:51;16.05;;;9.32;;
78312;SDS011;67568;47.438;21.408;2023-04-06T13:05:18;14.32;;;8.55;;
78312;SDS011;67568;47.438;21.408;2023-04-06T13:07:45;15.40;;;8.82;;
78312;SDS011;67568;47.438;21.408;2023-04-06T13:10:12;17.27;;;9.00;;
78312;SDS011;67568;47.438;21.408;2023-04-06T13:12:38;20.17;;;9.87;;
78312;SDS011;67568;47.438;21.408;2023-04-06T13:15:05;19.58;;;9.98;;
78312;SDS011;67568;47.438;21.408;2023-04-06T13:17:32;19.30;;;9.85;;
78312;SDS011;67568;47.438;21.408;2023-04-06T13:19:59;23.65;;;11.73;;
78312;SDS011;67568;47.438;21.408;2023-04-06T13:22:25;18.67;;;9.75;;
78312;SDS011;67568;47.438;21.408;2023-04-06T13:24:52;31.33;;;15.77;;
78312;SDS011;67568;47.438;21.408;2023-04-06T13:27:18;43.30;;;25.08;;
78312;SDS011;67568;47.438;21.408;2023-04-06T13:29:45;25.83;;;15.35;;
78312;SDS011;67568;47.438;21.408;2023-04-06T13:32:12;20.52;;;11.98;;
78312;SDS011;67568;47.438;21.408;2023-04-06T13:34:39;17.45;;;9.80;;
78312;SDS011;67568;47.438;21.408;2023-04-06T13:37:05;17.03;;;8.97;;
78312;SDS011;67568;47.438;21.408;2023-04-06T13:39:32;15.23;;;9.60;;
78312;SDS011;67568;47.438;21.408;2023-04-06T13:41:58;18.85;;;9.60;;
78312;SDS011;67568;47.438;21.408;2023-04-06T13:44:28;18.35;;;9.38;;
78312;SDS011;67568;47.438;21.408;2023-04-06T13:46:55;16.08;;;9.65;;
78312;SDS011;67568;47.438;21.408;2023-04-06T13:49:22;16.77;;;9.73;;
78312;SDS011;67568;47.438;21.408;2023-04-06T13:51:49;16.33;;;9.95;;
78312;SDS011;67568;47.438;21.408;2023-04-06T13:54:16;17.88;;;9.88;;
78312;SDS011;67568;47.438;21.408;2023-04-06T13:56:42;17.27;;;9.80;;
78312;SDS011;67568;47.438;21.408;2023-04-06T13:59:09;19.08;;;10.80;;
78312;SDS011;67568;47.438;21.408;2023-04-06T14:01:36;18.23;;;11.17;;
78312;SDS011;67568;47.438;21.408;2023-04-06T14:04:03;17.45;;;9.43;;
78312;SDS011;67568;47.438;21.408;2023-04-06T14:06:30;17.02;;;9.70;;
78312;SDS011;67568;47.438;21.408;2023-04-06T14:08:57;14.55;;;9.00;;
78312;SDS011;67568;47.438;21.408;2023-04-06T14:11:24;17.58;;;10.70;;
78312;SDS011;67568;47.438;21.408;2023-04-06T14:13:51;16.43;;;9.53;;
78312;SDS011;67568;47.438;21.408;2023-04-06T14:16:17;16.40;;;9.55;;
78312;SDS011;67568;47.438;21.408;2023-04-06T14:18:44;15.68;;;9.50;;
78312;SDS011;67568;47.438;21.408;2023-04-06T14:21:11;15.63;;;9.57;;
78312;SDS011;67568;47.438;21.408;2023-04-06T14:23:37;18.95;;;12.60;;
78312;SDS011;67568;47.438;21.408;2023-04-06T14:26:04;29.57;;;16.10;;
78312;SDS011;67568;47.438;21.408;2023-04-06T14:28:32;23.80;;;12.95;;
78312;SDS011;67568;47.438;21.408;2023-04-06T14:31:00;18.13;;;11.07;;
78312;SDS011;67568;47.438;21.408;2023-04-06T14:33:27;16.50;;;10.57;;
78312;SDS011;67568;47.438;21.408;2023-04-06T14:35:54;16.70;;;9.77;;
78312;SDS011;67568;47.438;21.408;2023-04-06T14:38:20;17.17;;;10.47;;